Detroit Metropolitan Wayne County Airport
KDTW : now visible

Airfield :











YOU CAN JOIN US ON...

 
LOGIN :

Register | Disclaimer

   EN    FR    IT 

 









Legend :    VFR   Marginal VFR   IFR   Intensive IFR   Very Intensive IFR
Visi :
Ceiling :
>= 8 km
>= 3000ft
5 to 8 km
1000 to 3000 ft
1500m to 5 km
500 to 1000 ft
800 to 1500m
200 to 500 ft
< 800m
< 200 ft
Symbols :   Thunderstorms  Fog  Heavy snow  Heavy precipitations  Wind > 20 kt






- Airport Elevation : 645 ft
- IATA code : DTW


KDTW - Detroit Metropolitan Wayne County

CURRENT METAR :
  • 280053Z 03005KT 10SM SCT055 BKN100 OVC200 18/16 A2975 RMK AO2 SLP071 T01830161 $

EXPIRED METARs :
  • 272353Z 32003KT 10SM SCT055 BKN080 OVC095 19/16 A2974 RMK AO2 LTG DSNT SW SLP067 CB DSNT S-SW MOV SE 60000 T01890156 10256 20178 53010 $
  • 272253Z 04004KT 10SM BKN050 BKN100 OVC200 18/15 A2972 RMK AO2 WSHFT 2154 LTG DSNT SW AND W RAB10E44 TSE44 SLP062 TS MOV SE CB DSNT E AND SW MOV SE P0000 T01780150 /
  • 272244Z VRB05G16KT 10SM BKN050 BKN100 OVC200 18/14 A2972 RMK AO2 WSHFT 2154 LTG DSNT W RAB10E44 TSE44 TS MOV SE CB DSNT NE-E MOV SE P0000 T01780144 $

TAF KDTW
Valid from the 28 at 00:00 until the 29 at 06:00 UTC


272322Z 2800/2906 02007KT 6SM -SHRA BKN015 OVC025
FM280300 01005KT P6SM BKN022 BKN035
FM281000 33005KT P6SM SKC
FM281600 18005KT P6SM SCT040 SCT250
KZOB FIR / North America



MET'MAP, your aeronautical weather chart ! - Copyright ORBIFLY December 2007 - Disclaimer

ORBIFLY MET'MAP TEAM :

Programming & Development : Alexandra Zaïnal
Original concept : Baudouin d'Aumeries
Technical & hardware support : Manuel Goepfert
Assistance : Marc-Olivier Méhu

Contact : metmap@orbifly.com




SOURCES & CREDITS :

   NOAA       Earth
Advisory